sensor_id;sensor_type;location;lat;lon;timestamp;pressure;altitude;pressure_sealevel;temperature;humidity
13968;BME280;39536;52.198;9.920;2022-10-31T00:01:01;101088.59;;;16.26;100.00
13968;BME280;39536;52.198;9.920;2022-10-31T00:03:28;101090.66;;;16.19;100.00
13968;BME280;39536;52.198;9.920;2022-10-31T00:05:54;101083.44;;;16.05;100.00
13968;BME280;39536;52.198;9.920;2022-10-31T00:08:21;101091.66;;;15.98;100.00
13968;BME280;39536;52.198;9.920;2022-10-31T00:10:49;101087.16;;;16.01;100.00
13968;BME280;39536;52.198;9.920;2022-10-31T00:13:15;101087.19;;;16.00;100.00
13968;BME280;39536;52.198;9.920;2022-10-31T00:15:42;101085.66;;;15.96;100.00
13968;BME280;39536;52.198;9.920;2022-10-31T00:18:09;101081.16;;;15.98;100.00
13968;BME280;39536;52.198;9.920;2022-10-31T00:20:38;101077.81;;;15.94;100.00
13968;BME280;39536;52.198;9.920;2022-10-31T00:23:05;101085.66;;;15.96;100.00
13968;BME280;39536;52.198;9.920;2022-10-31T00:25:34;101086.50;;;15.96;100.00
13968;BME280;39536;52.198;9.920;2022-10-31T00:28:03;101091.19;;;15.89;100.00
13968;BME280;39536;52.198;9.920;2022-10-31T00:30:29;101092.31;;;15.84;100.00
13968;BME280;39536;52.198;9.920;2022-10-31T00:32:56;101086.63;;;15.74;100.00
13968;BME280;39536;52.198;9.920;2022-10-31T00:35:22;101091.78;;;15.76;100.00
13968;BME280;39536;52.198;9.920;2022-10-31T00:37:49;101091.75;;;15.77;100.00
13968;BME280;39536;52.198;9.920;2022-10-31T00:40:16;101093.84;;;15.69;100.00
13968;BME280;39536;52.198;9.920;2022-10-31T00:42:43;101096.56;;;15.67;100.00
13968;BME280;39536;52.198;9.920;2022-10-31T00:45:11;101105.41;;;15.65;100.00
13968;BME280;39536;52.198;9.920;2022-10-31T00:47:37;101108.16;;;15.62;100.00
13968;BME280;39536;52.198;9.920;2022-10-31T00:50:05;101114.34;;;15.61;100.00
13968;BME280;39536;52.198;9.920;2022-10-31T00:52:31;101107.31;;;15.61;100.00
13968;BME280;39536;52.198;9.920;2022-10-31T00:54:58;101108.56;;;15.53;100.00
13968;BME280;39536;52.198;9.920;2022-10-31T00:57:24;101109.91;;;15.42;100.00
13968;BME280;39536;52.198;9.920;2022-10-31T00:59:51;101106.19;;;15.46;100.00
13968;BME280;39536;52.198;9.920;2022-10-31T01:02:19;101115.28;;;15.39;100.00
13968;BME280;39536;52.198;9.920;2022-10-31T01:04:45;101112.13;;;15.31;100.00
13968;BME280;39536;52.198;9.920;2022-10-31T01:07:12;101117.72;;;15.23;100.00
13968;BME280;39536;52.198;9.920;2022-10-31T01:09:39;101116.97;;;15.20;100.00
13968;BME280;39536;52.198;9.920;2022-10-31T01:12:06;101120.59;;;15.17;100.00
13968;BME280;39536;52.198;9.920;2022-10-31T01:14:32;101116.31;;;15.15;100.00
13968;BME280;39536;52.198;9.920;2022-10-31T01:16:59;101124.19;;;15.15;100.00
13968;BME280;39536;52.198;9.920;2022-10-31T01:19:27;101126.56;;;15.21;100.00
13968;BME280;39536;52.198;9.920;2022-10-31T01:21:54;101125.88;;;15.16;100.00
13968;BME280;39536;52.198;9.920;2022-10-31T01:24:21;101127.00;;;15.10;100.00
13968;BME280;39536;52.198;9.920;2022-10-31T01:26:47;101140.66;;;15.18;100.00
13968;BME280;39536;52.198;9.920;2022-10-31T01:29:14;101140.59;;;15.20;100.00
13968;BME280;39536;52.198;9.920;2022-10-31T01:31:40;101143.97;;;15.23;100.00
13968;BME280;39536;52.198;9.920;2022-10-31T01:34:08;101141.34;;;15.23;100.00
13968;BME280;39536;52.198;9.920;2022-10-31T01:36:40;101145.84;;;15.20;100.00
13968;BME280;39536;52.198;9.920;2022-10-31T01:39:08;101143.28;;;15.18;100.00
13968;BME280;39536;52.198;9.920;2022-10-31T01:41:37;101141.38;;;15.22;100.00
13968;BME280;39536;52.198;9.920;2022-10-31T01:47:06;101151.06;;;15.20;100.00
13968;BME280;39536;52.198;9.920;2022-10-31T01:49:37;101158.19;;;15.18;100.00
13968;BME280;39536;52.198;9.920;2022-10-31T01:52:11;101155.72;;;15.13;100.00
13968;BME280;39536;52.198;9.920;2022-10-31T01:54:41;101148.72;;;15.14;100.00
13968;BME280;39536;52.198;9.920;2022-10-31T01:57:12;101150.63;;;15.10;100.00
13968;BME280;39536;52.198;9.920;2022-10-31T01:59:42;101143.88;;;15.05;100.00
13968;BME280;39536;52.198;9.920;2022-10-31T02:02:10;101151.66;;;15.06;100.00
13968;BME280;39536;52.198;9.920;2022-10-31T02:04:38;101150.03;;;15.04;100.00
13968;BME280;39536;52.198;9.920;2022-10-31T02:07:09;101157.75;;;15.07;100.00
13968;BME280;39536;52.198;9.920;2022-10-31T02:09:37;101148.38;;;15.01;100.00
13968;BME280;39536;52.198;9.920;2022-10-31T02:12:05;101152.72;;;15.02;100.00
13968;BME280;39536;52.198;9.920;2022-10-31T02:14:33;101150.34;;;14.96;100.00
13968;BME280;39536;52.198;9.920;2022-10-31T02:16:59;101155.53;;;14.97;100.00
13968;BME280;39536;52.198;9.920;2022-10-31T02:19:31;101164.34;;;14.95;100.00
13968;BME280;39536;52.198;9.920;2022-10-31T02:22:05;101166.97;;;14.95;100.00
13968;BME280;39536;52.198;9.920;2022-10-31T02:24:44;101170.28;;;15.00;100.00
13968;BME280;39536;52.198;9.920;2022-10-31T02:27:34;101172.91;;;15.00;100.00
13968;BME280;39536;52.198;9.920;2022-10-31T02:30:07;101167.53;;;15.03;100.00
13968;BME280;39536;52.198;9.920;2022-10-31T02:32:43;101166.56;;;15.06;100.00
13968;BME280;39536;52.198;9.920;2022-10-31T02:35:14;101171.13;;;15.00;100.00
13968;BME280;39536;52.198;9.920;2022-10-31T02:37:48;101173.97;;;14.96;100.00
13968;BME280;39536;52.198;9.920;2022-10-31T02:40:22;101163.13;;;14.83;100.00
13968;BME280;39536;52.198;9.920;2022-10-31T02:42:56;101169.31;;;14.81;100.00
13968;BME280;39536;52.198;9.920;2022-10-31T02:45:28;101161.88;;;14.70;100.00
13968;BME280;39536;52.198;9.920;2022-10-31T02:48:00;101168.84;;;14.71;100.00
13968;BME280;39536;52.198;9.920;2022-10-31T02:50:30;101162.69;;;14.72;100.00
13968;BME280;39536;52.198;9.920;2022-10-31T02:52:57;101167.91;;;14.72;100.00
13968;BME280;39536;52.198;9.920;2022-10-31T02:55:49;101166.09;;;14.74;100.00
13968;BME280;39536;52.198;9.920;2022-10-31T02:58:19;101175.53;;;14.78;100.00
13968;BME280;39536;52.198;9.920;2022-10-31T03:00:56;101171.16;;;14.78;100.00
13968;BME280;39536;52.198;9.920;2022-10-31T03:03:33;101175.53;;;14.78;100.00
13968;BME280;39536;52.198;9.920;2022-10-31T03:06:06;101165.84;;;14.80;100.00
13968;BME280;39536;52.198;9.920;2022-10-31T03:08:39;101174.44;;;14.84;100.00
13968;BME280;39536;52.198;9.920;2022-10-31T03:11:08;101173.84;;;14.77;100.00
13968;BME280;39536;52.198;9.920;2022-10-31T03:13:39;101175.66;;;14.75;100.00
13968;BME280;39536;52.198;9.920;2022-10-31T03:16:11;101173.28;;;14.69;100.00
13968;BME280;39536;52.198;9.920;2022-10-31T03:18:44;101175.91;;;14.69;100.00
13968;BME280;39536;52.198;9.920;2022-10-31T03:21:14;101177.81;;;14.65;100.00
13968;BME280;39536;52.198;9.920;2022-10-31T03:23:44;101178.84;;;14.61;100.00
13968;BME280;39536;52.198;9.920;2022-10-31T03:26:13;101187.44;;;14.65;100.00
13968;BME280;39536;52.198;9.920;2022-10-31T03:28:45;101184.69;;;14.68;100.00
13968;BME280;39536;52.198;9.920;2022-10-31T03:31:14;101188.34;;;14.64;100.00
13968;BME280;39536;52.198;9.920;2022-10-31T03:33:45;101191.06;;;14.61;100.00
13968;BME280;39536;52.198;9.920;2022-10-31T03:36:14;101187.00;;;14.53;100.00
13968;BME280;39536;52.198;9.920;2022-10-31T03:38:42;101189.69;;;14.52;100.00
13968;BME280;39536;52.198;9.920;2022-10-31T03:41:24;101195.00;;;14.49;100.00
13968;BME280;39536;52.198;9.920;2022-10-31T03:43:57;101192.41;;;14.49;100.00
13968;BME280;39536;52.198;9.920;2022-10-31T03:46:25;101190.56;;;14.51;100.00
13968;BME280;39536;52.198;9.920;2022-10-31T03:48:54;101195.78;;;14.52;100.00
13968;BME280;39536;52.198;9.920;2022-10-31T03:51:23;101194.06;;;14.51;100.00
13968;BME280;39536;52.198;9.920;2022-10-31T03:53:55;101199.69;;;14.41;100.00
13968;BME280;39536;52.198;9.920;2022-10-31T03:56:28;101206.69;;;14.40;100.00
13968;BME280;39536;52.198;9.920;2022-10-31T03:58:59;101210.09;;;14.42;100.00
13968;BME280;39536;52.198;9.920;2022-10-31T04:01:29;101208.50;;;14.38;100.00
13968;BME280;39536;52.198;9.920;2022-10-31T04:03:58;101208.47;;;14.40;100.00
13968;BME280;39536;52.198;9.920;2022-10-31T04:06:27;101215.59;;;14.36;100.00
13968;BME280;39536;52.198;9.920;2022-10-31T04:08:57;101212.91;;;14.38;100.00
13968;BME280;39536;52.198;9.920;2022-10-31T04:11:28;101219.09;;;14.35;100.00
13968;BME280;39536;52.198;9.920;2022-10-31T04:13:57;101220.84;;;14.36;100.00
13968;BME280;39536;52.198;9.920;2022-10-31T04:16:26;101228.69;;;14.36;100.00
13968;BME280;39536;52.198;9.920;2022-10-31T04:18:53;101215.72;;;14.33;100.00
13968;BME280;39536;52.198;9.920;2022-10-31T04:21:26;101225.53;;;14.26;100.00
13968;BME280;39536;52.198;9.920;2022-10-31T04:23:53;101227.19;;;14.29;100.00
13968;BME280;39536;52.198;9.920;2022-10-31T04:26:20;101223.63;;;14.31;100.00
13968;BME280;39536;52.198;9.920;2022-10-31T04:28:46;101238.53;;;14.29;100.00
13968;BME280;39536;52.198;9.920;2022-10-31T04:31:14;101236.84;;;14.28;100.00
13968;BME280;39536;52.198;9.920;2022-10-31T04:33:40;101233.38;;;14.28;100.00
13968;BME280;39536;52.198;9.920;2022-10-31T04:36:07;101235.78;;;14.32;100.00
13968;BME280;39536;52.198;9.920;2022-10-31T04:38:35;101241.00;;;14.34;100.00
13968;BME280;39536;52.198;9.920;2022-10-31T04:41:02;101234.09;;;14.31;100.00
13968;BME280;39536;52.198;9.920;2022-10-31T04:43:28;101236.69;;;14.33;100.00
13968;BME280;39536;52.198;9.920;2022-10-31T04:45:55;101235.69;;;14.36;100.00
13968;BME280;39536;52.198;9.920;2022-10-31T04:48:21;101235.69;;;14.36;100.00
13968;BME280;39536;52.198;9.920;2022-10-31T04:50:48;101240.06;;;14.35;100.00
13968;BME280;39536;52.198;9.920;2022-10-31T04:53:14;101239.22;;;14.35;100.00
13968;BME280;39536;52.198;9.920;2022-10-31T04:55:42;101240.06;;;14.35;100.00
13968;BME280;39536;52.198;9.920;2022-10-31T04:58:08;101236.13;;;14.23;100.00
13968;BME280;39536;52.198;9.920;2022-10-31T05:00:35;101229.41;;;14.16;100.00
13968;BME280;39536;52.198;9.920;2022-10-31T05:03:01;101226.34;;;14.05;100.00
13968;BME280;39536;52.198;9.920;2022-10-31T05:05:29;101227.41;;;13.99;100.00
13968;BME280;39536;52.198;9.920;2022-10-31T05:07:56;101226.69;;;13.96;100.00
13968;BME280;39536;52.198;9.920;2022-10-31T05:10:25;101227.88;;;13.85;100.00
13968;BME280;39536;52.198;9.920;2022-10-31T05:12:54;101224.53;;;13.82;100.00
13968;BME280;39536;52.198;9.920;2022-10-31T05:15:23;101222.28;;;13.71;100.00
13968;BME280;39536;52.198;9.920;2022-10-31T05:17:50;101219.88;;;13.65;100.00
13968;BME280;39536;52.198;9.920;2022-10-31T05:20:18;101223.56;;;13.59;100.00
13968;BME280;39536;52.198;9.920;2022-10-31T05:22:46;101223.38;;;13.64;100.00
13968;BME280;39536;52.198;9.920;2022-10-31T05:25:14;101215.53;;;13.64;100.00
13968;BME280;39536;52.198;9.920;2022-10-31T05:27:41;101215.66;;;13.61;100.00
13968;BME280;39536;52.198;9.920;2022-10-31T05:30:12;101221.78;;;13.60;100.00
13968;BME280;39536;52.198;9.920;2022-10-31T05:32:39;101222.91;;;13.53;100.00
13968;BME280;39536;52.198;9.920;2022-10-31T05:35:07;101226.50;;;13.50;100.00
13968;BME280;39536;52.198;9.920;2022-10-31T05:37:34;101217.03;;;13.46;100.00
13968;BME280;39536;52.198;9.920;2022-10-31T05:40:01;101221.34;;;13.47;100.00
13968;BME280;39536;52.198;9.920;2022-10-31T05:42:27;101228.41;;;13.45;100.00
13968;BME280;39536;52.198;9.920;2022-10-31T05:44:54;101222.47;;;13.40;100.00
13968;BME280;39536;52.198;9.920;2022-10-31T05:47:22;101221.66;;;13.38;100.00
13968;BME280;39536;52.198;9.920;2022-10-31T05:49:48;101228.66;;;13.37;100.00
13968;BME280;39536;52.198;9.920;2022-10-31T05:52:15;101228.41;;;13.45;100.00
13968;BME280;39536;52.198;9.920;2022-10-31T05:54:42;101237.97;;;13.46;100.00
13968;BME280;39536;52.198;9.920;2022-10-31T05:57:09;101233.50;;;13.50;100.00
13968;BME280;39536;52.198;9.920;2022-10-31T05:59:35;101226.50;;;13.50;100.00
13968;BME280;39536;52.198;9.920;2022-10-31T06:02:02;101229.03;;;13.52;100.00
13968;BME280;39536;52.198;9.920;2022-10-31T06:04:30;101227.53;;;13.45;100.00
13968;BME280;39536;52.198;9.920;2022-10-31T06:06:56;101234.53;;;13.44;100.00
13968;BME280;39536;52.198;9.920;2022-10-31T06:09:23;101231.09;;;13.44;100.00
13968;BME280;39536;52.198;9.920;2022-10-31T06:11:49;101235.56;;;13.40;100.00
13968;BME280;39536;52.198;9.920;2022-10-31T06:14:16;101231.22;;;13.39;100.00
13968;BME280;39536;52.198;9.920;2022-10-31T06:16:42;101239.94;;;13.39;100.00
13968;BME280;39536;52.198;9.920;2022-10-31T06:19:09;101246.03;;;13.40;100.00
13968;BME280;39536;52.198;9.920;2022-10-31T06:21:37;101246.06;;;13.38;100.00
13968;BME280;39536;52.198;9.920;2022-10-31T06:24:04;101242.59;;;13.38;100.00
13968;BME280;39536;52.198;9.920;2022-10-31T06:26:30;101247.00;;;13.36;100.00
13968;BME280;39536;52.198;9.920;2022-10-31T06:28:57;101248.75;;;13.37;100.00
13968;BME280;39536;52.198;9.920;2022-10-31T06:31:23;101250.44;;;13.38;100.00
13968;BME280;39536;52.198;9.920;2022-10-31T06:33:50;101244.38;;;13.37;100.00
13968;BME280;39536;52.198;9.920;2022-10-31T06:36:16;101255.75;;;13.36;100.00
13968;BME280;39536;52.198;9.920;2022-10-31T06:38:44;101252.31;;;13.34;100.00
13968;BME280;39536;52.198;9.920;2022-10-31T06:41:11;101253.13;;;13.36;100.00
13968;BME280;39536;52.198;9.920;2022-10-31T06:43:37;101254.88;;;13.36;100.00
13968;BME280;39536;52.198;9.920;2022-10-31T06:46:04;101252.31;;;13.34;100.00
13968;BME280;39536;52.198;9.920;2022-10-31T06:48:31;101256.59;;;13.37;100.00
13968;BME280;39536;52.198;9.920;2022-10-31T06:50:58;101259.91;;;13.42;100.00
13968;BME280;39536;52.198;9.920;2022-10-31T06:53:25;101248.44;;;13.46;100.00
13968;BME280;39536;52.198;9.920;2022-10-31T06:55:55;101255.38;;;13.47;100.00
13968;BME280;39536;52.198;9.920;2022-10-31T06:58:22;101255.28;;;13.50;100.00
13968;BME280;39536;52.198;9.920;2022-10-31T07:00:48;101253.59;;;13.49;100.00
13968;BME280;39536;52.198;9.920;2022-10-31T07:03:15;101254.22;;;13.56;100.00
13968;BME280;39536;52.198;9.920;2022-10-31T07:05:42;101255.81;;;13.60;100.00
13968;BME280;39536;52.198;9.920;2022-10-31T07:08:10;101260.00;;;13.66;100.00
13968;BME280;39536;52.198;9.920;2022-10-31T07:10:38;101269.53;;;13.68;100.00
13968;BME280;39536;52.198;9.920;2022-10-31T07:13:11;101277.00;;;13.79;100.00
13968;BME280;39536;52.198;9.920;2022-10-31T07:15:39;101277.91;;;13.78;100.00
13968;BME280;39536;52.198;9.920;2022-10-31T07:18:08;101282.31;;;13.77;100.00
13968;BME280;39536;52.198;9.920;2022-10-31T07:20:35;101277.75;;;13.82;100.00
13968;BME280;39536;52.198;9.920;2022-10-31T07:23:02;101282.00;;;13.86;100.00
13968;BME280;39536;52.198;9.920;2022-10-31T07:25:29;101285.50;;;13.85;100.00
13968;BME280;39536;52.198;9.920;2022-10-31T07:27:56;101279.31;;;13.88;100.00
13968;BME280;39536;52.198;9.920;2022-10-31T07:30:23;101283.53;;;13.92;100.00
13968;BME280;39536;52.198;9.920;2022-10-31T07:32:50;101286.00;;;13.97;100.00
13968;BME280;39536;52.198;9.920;2022-10-31T07:35:18;101285.94;;;13.98;100.00
13968;BME280;39536;52.198;9.920;2022-10-31T07:37:46;101279.91;;;13.96;100.00
13968;BME280;39536;52.198;9.920;2022-10-31T07:40:13;101281.78;;;13.93;100.00
13968;BME280;39536;52.198;9.920;2022-10-31T07:42:41;101279.28;;;13.90;100.00
13968;BME280;39536;52.198;9.920;2022-10-31T07:45:09;101279.19;;;13.91;100.00
13968;BME280;39536;52.198;9.920;2022-10-31T07:47:41;101286.81;;;13.99;100.00
13968;BME280;39536;52.198;9.920;2022-10-31T07:50:09;101285.78;;;14.03;100.00
13968;BME280;39536;52.198;9.920;2022-10-31T07:52:36;101283.97;;;14.05;100.00
13968;BME280;39536;52.198;9.920;2022-10-31T07:55:03;101285.72;;;14.04;100.00
13968;BME280;39536;52.198;9.920;2022-10-31T07:57:29;101288.31;;;14.06;100.00
13968;BME280;39536;52.198;9.920;2022-10-31T07:59:56;101295.47;;;14.01;100.00
13968;BME280;39536;52.198;9.920;2022-10-31T08:02:23;101297.84;;;13.82;100.00
13968;BME280;39536;52.198;9.920;2022-10-31T08:04:51;101291.44;;;13.91;100.00
13968;BME280;39536;52.198;9.920;2022-10-31T08:07:18;101290.44;;;13.95;100.00
13968;BME280;39536;52.198;9.920;2022-10-31T08:09:44;101295.31;;;14.05;100.00
13968;BME280;39536;52.198;9.920;2022-10-31T08:12:11;101304.81;;;14.08;100.00
13968;BME280;39536;52.198;9.920;2022-10-31T08:14:37;101298.56;;;14.12;100.00
13968;BME280;39536;52.198;9.920;2022-10-31T08:17:04;101296.84;;;14.11;100.00
13968;BME280;39536;52.198;9.920;2022-10-31T08:19:30;101290.44;;;14.20;100.00
13968;BME280;39536;52.198;9.920;2022-10-31T08:21:58;101295.00;;;14.15;100.00
13968;BME280;39536;52.198;9.920;2022-10-31T08:24:25;101292.06;;;13.99;100.00
13968;BME280;39536;52.198;9.920;2022-10-31T08:26:52;101287.28;;;14.10;100.00
13968;BME280;39536;52.198;9.920;2022-10-31T08:29:18;101289.69;;;14.16;100.00
13968;BME280;39536;52.198;9.920;2022-10-31T08:31:45;101287.91;;;14.17;100.00
13968;BME280;39536;52.198;9.920;2022-10-31T08:34:11;101278.94;;;14.24;100.00
13968;BME280;39536;52.198;9.920;2022-10-31T08:36:38;101277.44;;;14.17;100.00
13968;BME280;39536;52.198;9.920;2022-10-31T08:39:06;101283.59;;;14.16;100.00
13968;BME280;39536;52.198;9.920;2022-10-31T08:41:32;101278.34;;;13.91;100.00
13968;BME280;39536;52.198;9.920;2022-10-31T08:44:00;101280.47;;;14.04;100.00
13968;BME280;39536;52.198;9.920;2022-10-31T08:46:26;101272.69;;;14.03;100.00
13968;BME280;39536;52.198;9.920;2022-10-31T08:48:53;101269.69;;;14.14;100.00
13968;BME280;39536;52.198;9.920;2022-10-31T08:51:20;101263.84;;;14.30;100.00
13968;BME280;39536;52.198;9.920;2022-10-31T08:53:46;101267.59;;;14.47;100.00
13968;BME280;39536;52.198;9.920;2022-10-31T08:56:14;101251.50;;;14.58;100.00
13968;BME280;39536;52.198;9.920;2022-10-31T08:58:41;101254.28;;;14.76;100.00
13968;BME280;39536;52.198;9.920;2022-10-31T09:01:07;101267.59;;;14.94;100.00
13968;BME280;39536;52.198;9.920;2022-10-31T09:03:34;101262.56;;;15.11;100.00
13968;BME280;39536;52.198;9.920;2022-10-31T09:06:02;101256.75;;;15.25;100.00
13968;BME280;39536;52.198;9.920;2022-10-31T09:08:34;101265.78;;;15.40;100.00
13968;BME280;39536;52.198;9.920;2022-10-31T09:11:01;101264.53;;;15.48;100.00
13968;BME280;39536;52.198;9.920;2022-10-31T09:13:29;101264.88;;;15.61;100.00
13968;BME280;39536;52.198;9.920;2022-10-31T09:15:56;101261.78;;;15.74;100.00
13968;BME280;39536;52.198;9.920;2022-10-31T09:18:25;101257.09;;;15.80;100.00
13968;BME280;39536;52.198;9.920;2022-10-31T09:20:53;101261.13;;;15.89;100.00
13968;BME280;39536;52.198;9.920;2022-10-31T09:23:21;101252.88;;;15.97;100.00
13968;BME280;39536;52.198;9.920;2022-10-31T09:25:49;101254.19;;;16.07;100.00
13968;BME280;39536;52.198;9.920;2022-10-31T09:28:18;101249.25;;;16.20;100.00
13968;BME280;39536;52.198;9.920;2022-10-31T09:30:47;101255.03;;;16.28;100.00
13968;BME280;39536;52.198;9.920;2022-10-31T09:33:14;101251.03;;;16.38;100.00
13968;BME280;39536;52.198;9.920;2022-10-31T09:35:41;101259.94;;;16.35;100.00
13968;BME280;39536;52.198;9.920;2022-10-31T09:38:09;101253.47;;;16.43;100.00
13968;BME280;39536;52.198;9.920;2022-10-31T09:40:38;101248.50;;;16.55;100.00
13968;BME280;39536;52.198;9.920;2022-10-31T09:43:13;101250.44;;;16.71;100.00
13968;BME280;39536;52.198;9.920;2022-10-31T09:46:00;101246.31;;;16.84;100.00
13968;BME280;39536;52.198;9.920;2022-10-31T09:48:48;101245.03;;;16.93;100.00
13968;BME280;39536;52.198;9.920;2022-10-31T09:51:20;101246.16;;;17.06;100.00
13968;BME280;39536;52.198;9.920;2022-10-31T09:53:50;101243.84;;;17.17;100.00
13968;BME280;39536;52.198;9.920;2022-10-31T09:56:20;101249.69;;;17.24;100.00
13968;BME280;39536;52.198;9.920;2022-10-31T09:58:52;101243.25;;;17.29;100.00
13968;BME280;39536;52.198;9.920;2022-10-31T10:01:37;101242.72;;;17.40;100.00
13968;BME280;39536;52.198;9.920;2022-10-31T10:04:21;101236.63;;;17.57;100.00
13968;BME280;39536;52.198;9.920;2022-10-31T10:06:52;101234.59;;;17.62;100.00
13968;BME280;39536;52.198;9.920;2022-10-31T10:09:21;101235.53;;;17.61;100.00
13968;BME280;39536;52.198;9.920;2022-10-31T10:11:58;101232.31;;;17.72;100.00
13968;BME280;39536;52.198;9.920;2022-10-31T10:14:43;101235.66;;;17.75;100.00
13968;BME280;39536;52.198;9.920;2022-10-31T10:17:26;101236.16;;;17.84;100.00
13968;BME280;39536;52.198;9.920;2022-10-31T10:20:12;101236.00;;;17.87;100.00
13968;BME280;39536;52.198;9.920;2022-10-31T10:22:45;101231.94;;;17.97;100.00
13968;BME280;39536;52.198;9.920;2022-10-31T10:25:15;101232.31;;;18.07;100.00
13968;BME280;39536;52.198;9.920;2022-10-31T10:27:50;101229.72;;;18.22;100.00
13968;BME280;39536;52.198;9.920;2022-10-31T10:30:20;101219.09;;;18.40;100.00
13968;BME280;39536;52.198;9.920;2022-10-31T10:32:50;101223.97;;;18.48;100.00
13968;BME280;39536;52.198;9.920;2022-10-31T10:35:22;101217.94;;;18.61;100.00
13968;BME280;39536;52.198;9.920;2022-10-31T10:37:55;101217.50;;;18.69;100.00
13968;BME280;39536;52.198;9.920;2022-10-31T10:40:24;101208.25;;;18.78;100.00
13968;BME280;39536;52.198;9.920;2022-10-31T10:43:18;101210.72;;;18.81;100.00
13968;BME280;39536;52.198;9.920;2022-10-31T10:46:08;101205.25;;;18.84;100.00
13968;BME280;39536;52.198;9.920;2022-10-31T10:49:02;101205.91;;;18.72;100.00
13968;BME280;39536;52.198;9.920;2022-10-31T10:51:37;101199.81;;;18.87;100.00
13968;BME280;39536;52.198;9.920;2022-10-31T10:57:17;101195.47;;;19.02;100.00
13968;BME280;39536;52.198;9.920;2022-10-31T10:59:46;101193.09;;;18.97;100.00
13968;BME280;39536;52.198;9.920;2022-10-31T11:02:17;101185.91;;;18.99;100.00
13968;BME280;39536;52.198;9.920;2022-10-31T11:04:47;101182.31;;;19.00;100.00
13968;BME280;39536;52.198;9.920;2022-10-31T11:07:15;101178.47;;;19.06;100.00
13968;BME280;39536;52.198;9.920;2022-10-31T11:09:42;101173.34;;;19.19;100.00
13968;BME280;39536;52.198;9.920;2022-10-31T11:12:10;101172.25;;;19.23;100.00
13968;BME280;39536;52.198;9.920;2022-10-31T11:14:44;101173.22;;;19.36;100.00
13968;BME280;39536;52.198;9.920;2022-10-31T11:17:20;101173.63;;;19.44;100.00
13968;BME280;39536;52.198;9.920;2022-10-31T11:19:59;101160.69;;;19.54;100.00
13968;BME280;39536;52.198;9.920;2022-10-31T11:22:26;101163.72;;;19.62;100.00
13968;BME280;39536;52.198;9.920;2022-10-31T11:24:52;101160.53;;;19.71;100.00
13968;BME280;39536;52.198;9.920;2022-10-31T11:27:21;101152.34;;;19.90;100.00
13968;BME280;39536;52.198;9.920;2022-10-31T11:29:48;101155.75;;;20.06;100.00
13968;BME280;39536;52.198;9.920;2022-10-31T11:32:18;101147.59;;;20.24;100.00
13968;BME280;39536;52.198;9.920;2022-10-31T11:34:48;101146.09;;;20.20;100.00
13968;BME280;39536;52.198;9.920;2022-10-31T11:37:19;101143.81;;;20.28;100.00
13968;BME280;39536;52.198;9.920;2022-10-31T11:39:50;101144.47;;;20.32;100.00
13968;BME280;39536;52.198;9.920;2022-10-31T11:42:20;101145.31;;;20.32;100.00
13968;BME280;39536;52.198;9.920;2022-10-31T11:44:48;101140.72;;;20.48;100.00
13968;BME280;39536;52.198;9.920;2022-10-31T11:47:16;101142.50;;;20.62;100.00
13968;BME280;39536;52.198;9.920;2022-10-31T11:49:45;101143.19;;;20.66;100.00
13968;BME280;39536;52.198;9.920;2022-10-31T11:52:18;101134.66;;;20.46;100.00
13968;BME280;39536;52.198;9.920;2022-10-31T11:54:48;101132.03;;;20.46;100.00
13968;BME280;39536;52.198;9.920;2022-10-31T11:57:23;101120.31;;;20.50;100.00
13968;BME280;39536;52.198;9.920;2022-10-31T11:59:52;101122.91;;;20.65;100.00
13968;BME280;39536;52.198;9.920;2022-10-31T12:02:20;101127.97;;;20.82;100.00
13968;BME280;39536;52.198;9.920;2022-10-31T12:04:52;101131.44;;;21.10;100.00
13968;BME280;39536;52.198;9.920;2022-10-31T12:07:23;101125.31;;;21.22;100.00
13968;BME280;39536;52.198;9.920;2022-10-31T12:09:50;101120.22;;;21.32;100.00
13968;BME280;39536;52.198;9.920;2022-10-31T12:12:35;101122.50;;;21.38;99.00
13968;BME280;39536;52.198;9.920;2022-10-31T12:15:22;101116.72;;;21.18;98.61
13968;BME280;39536;52.198;9.920;2022-10-31T12:17:57;101112.09;;;20.82;100.00
13968;BME280;39536;52.198;9.920;2022-10-31T12:20:35;101106.94;;;20.66;100.00
13968;BME280;39536;52.198;9.920;2022-10-31T12:23:14;101109.34;;;20.42;100.00
13968;BME280;39536;52.198;9.920;2022-10-31T12:25:50;101104.84;;;20.30;100.00
13968;BME280;39536;52.198;9.920;2022-10-31T12:28:34;101098.59;;;20.31;100.00
13968;BME280;39536;52.198;9.920;2022-10-31T12:31:14;101092.84;;;20.39;100.00
13968;BME280;39536;52.198;9.920;2022-10-31T12:33:51;101089.19;;;20.27;100.00
13968;BME280;39536;52.198;9.920;2022-10-31T12:36:29;101082.91;;;20.42;100.00
13968;BME280;39536;52.198;9.920;2022-10-31T12:39:22;101088.19;;;20.42;100.00
13968;BME280;39536;52.198;9.920;2022-10-31T12:41:52;101074.00;;;20.43;100.00
13968;BME280;39536;52.198;9.920;2022-10-31T12:44:34;101077.75;;;20.26;100.00
13968;BME280;39536;52.198;9.920;2022-10-31T12:47:20;101071.19;;;20.05;100.00
13968;BME280;39536;52.198;9.920;2022-10-31T12:49:55;101065.94;;;19.91;100.00
13968;BME280;39536;52.198;9.920;2022-10-31T12:52:36;101058.47;;;19.83;100.00
13968;BME280;39536;52.198;9.920;2022-10-31T12:55:16;101057.00;;;19.79;100.00
13968;BME280;39536;52.198;9.920;2022-10-31T12:57:50;101054.88;;;19.84;100.00
13968;BME280;39536;52.198;9.920;2022-10-31T13:00:19;101054.81;;;19.86;100.00